createdAt,value
2023-01-19T00:01:24.459Z,7.34
2023-01-19T00:03:52.113Z,6.84
2023-01-19T00:06:19.785Z,6.45
2023-01-19T00:08:49.831Z,6.74
2023-01-19T00:11:20.459Z,9.51
2023-01-19T00:13:51.153Z,10.75
2023-01-19T00:16:19.108Z,9.57
2023-01-19T00:18:46.849Z,8.40
2023-01-19T00:21:14.959Z,7.60
2023-01-19T00:23:42.872Z,7.05
2023-01-19T00:26:10.944Z,6.62
2023-01-19T00:28:38.576Z,6.77
2023-01-19T00:31:06.266Z,9.31
2023-01-19T00:33:33.860Z,10.86
2023-01-19T00:36:01.559Z,9.84
2023-01-19T00:38:29.188Z,8.63
2023-01-19T00:40:56.866Z,7.76
2023-01-19T00:43:24.474Z,7.13
2023-01-19T00:45:52.917Z,6.65
2023-01-19T00:48:20.640Z,6.23
2023-01-19T00:50:49.201Z,6.62
2023-01-19T00:53:16.847Z,9.38
2023-01-19T00:55:44.543Z,10.94
2023-01-19T00:58:12.237Z,9.84
2023-01-19T01:00:39.874Z,8.55
2023-01-19T01:03:07.612Z,7.68
2023-01-19T01:05:35.565Z,7.06
2023-01-19T01:08:03.224Z,6.60
2023-01-19T01:10:31.116Z,6.21
2023-01-19T01:12:59.027Z,6.73
2023-01-19T01:15:27.126Z,9.60
2023-01-19T01:17:54.771Z,10.86
2023-01-19T01:20:22.445Z,9.65
2023-01-19T01:22:50.112Z,8.38
2023-01-19T01:25:17.716Z,7.47
2023-01-19T01:27:45.363Z,6.82
2023-01-19T01:30:13.043Z,6.35
2023-01-19T01:32:40.684Z,5.97
2023-01-19T01:35:09.235Z,6.54
2023-01-19T01:37:36.888Z,9.48
2023-01-19T01:40:04.559Z,10.71
2023-01-19T01:42:32.230Z,9.48
2023-01-19T01:45:00.987Z,8.24
2023-01-19T01:47:28.641Z,7.38
2023-01-19T01:49:56.216Z,6.76
2023-01-19T01:52:24.075Z,6.30
2023-01-19T01:54:52.941Z,6.61
2023-01-19T01:57:20.633Z,9.34
2023-01-19T01:59:48.266Z,10.87
2023-01-19T02:02:34.965Z,9.80
2023-01-19T02:05:04.283Z,8.38
2023-01-19T02:07:50.818Z,7.51
2023-01-19T02:10:37.095Z,6.86
2023-01-19T02:13:20.762Z,6.38
2023-01-19T02:15:48.458Z,6.87
2023-01-19T02:18:16.069Z,9.53
2023-01-19T02:20:43.813Z,10.58
2023-01-19T02:23:11.508Z,9.37
2023-01-19T02:25:40.724Z,8.18
2023-01-19T02:28:08.355Z,7.34
2023-01-19T02:30:36.008Z,6.76
2023-01-19T02:33:03.860Z,6.32
2023-01-19T02:35:31.565Z,6.52
2023-01-19T02:37:59.176Z,9.04
2023-01-19T02:40:26.816Z,10.64
2023-01-19T02:42:54.434Z,9.63
2023-01-19T02:45:22.081Z,8.38
2023-01-19T02:47:49.715Z,7.50
2023-01-19T02:50:17.545Z,6.87
2023-01-19T02:52:46.224Z,6.36
2023-01-19T02:55:13.862Z,6.51
2023-01-19T02:57:43.804Z,9.11
2023-01-19T03:00:11.421Z,10.83
2023-01-19T03:02:39.073Z,9.80
2023-01-19T03:05:06.768Z,8.52
2023-01-19T03:07:34.382Z,7.62
2023-01-19T03:10:02.018Z,7.00
2023-01-19T03:12:29.659Z,6.52
2023-01-19T03:14:57.275Z,6.67
2023-01-19T03:17:24.955Z,9.22
2023-01-19T03:19:52.952Z,11.00
2023-01-19T03:22:20.565Z,10.03
2023-01-19T03:24:48.209Z,8.75
2023-01-19T03:27:15.862Z,7.83
2023-01-19T03:29:43.531Z,7.18
2023-01-19T03:32:11.156Z,6.69
2023-01-19T03:34:38.761Z,6.75
2023-01-19T03:37:06.427Z,9.20
2023-01-19T03:39:34.072Z,10.82
2023-01-19T03:42:02.439Z,9.81
2023-01-19T03:44:30.078Z,8.52
2023-01-19T03:46:57.775Z,7.58
2023-01-19T03:49:25.421Z,6.88
2023-01-19T03:51:53.072Z,6.32
2023-01-19T03:54:20.715Z,6.46
2023-01-19T03:56:48.324Z,8.98
2023-01-19T03:59:17.693Z,10.65
2023-01-19T04:01:45.448Z,9.60
2023-01-19T04:04:15.937Z,8.23
2023-01-19T04:06:43.872Z,7.22
2023-01-19T04:09:11.502Z,6.50
2023-01-19T04:11:39.120Z,5.89
2023-01-19T04:14:06.816Z,5.85
2023-01-19T04:16:34.436Z,8.11
2023-01-19T04:19:02.064Z,10.01
2023-01-19T04:21:29.678Z,9.77
2023-01-19T04:23:57.411Z,8.31
2023-01-19T04:26:25.089Z,7.13
2023-01-19T04:28:52.767Z,6.32
2023-01-19T04:31:20.641Z,5.74
2023-01-19T04:33:48.441Z,6.23
2023-01-19T04:36:16.072Z,9.03
2023-01-19T04:38:43.711Z,10.58
2023-01-19T04:41:11.305Z,9.55
2023-01-19T04:43:38.927Z,8.29
2023-01-19T04:46:06.980Z,7.43
2023-01-19T04:48:34.611Z,6.82
2023-01-19T04:51:02.286Z,6.97
2023-01-19T04:53:29.979Z,9.52
2023-01-19T04:55:57.714Z,10.69
2023-01-19T04:58:25.340Z,9.53
2023-01-19T05:00:53.361Z,8.32
2023-01-19T05:03:21.035Z,7.44
2023-01-19T05:05:48.717Z,6.80
2023-01-19T05:08:16.409Z,6.30
2023-01-19T05:10:44.075Z,7.50
2023-01-19T05:13:11.680Z,10.39
2023-01-19T05:15:39.291Z,10.70
2023-01-19T05:18:06.903Z,9.30
2023-01-19T05:20:34.539Z,8.12
2023-01-19T05:23:02.551Z,7.32
2023-01-19T05:25:30.560Z,6.73
2023-01-19T05:27:58.206Z,6.95
2023-01-19T05:30:25.838Z,9.71
2023-01-19T05:32:53.471Z,11.01
2023-01-19T05:35:31.251Z,9.84
2023-01-19T05:38:03.112Z,8.50
2023-01-19T05:40:30.757Z,7.67
2023-01-19T05:43:01.512Z,7.08
2023-01-19T05:45:29.397Z,6.61
2023-01-19T05:47:57.025Z,6.97
2023-01-19T05:50:25.502Z,9.72
2023-01-19T05:52:53.594Z,10.85
2023-01-19T05:55:21.220Z,9.65
2023-01-19T05:57:48.849Z,8.43
2023-01-19T06:00:16.588Z,7.58
2023-01-19T06:02:44.275Z,6.97
2023-01-19T06:05:12.077Z,6.52
2023-01-19T06:07:39.701Z,6.83
2023-01-19T06:10:07.351Z,9.58
2023-01-19T06:12:34.987Z,10.85
2023-01-19T06:15:02.600Z,9.63
2023-01-19T06:17:30.229Z,8.38
2023-01-19T06:19:58.071Z,7.51
2023-01-19T06:22:25.676Z,6.88
2023-01-19T06:24:53.359Z,6.41
2023-01-19T06:27:20.971Z,6.66
2023-01-19T06:29:48.675Z,9.44
2023-01-19T06:32:16.373Z,10.79
2023-01-19T06:34:44.098Z,9.64
2023-01-19T06:37:11.833Z,8.41
2023-01-19T06:39:41.246Z,7.54
2023-01-19T06:42:08.875Z,6.92
2023-01-19T06:44:36.517Z,6.44
2023-01-19T06:47:15.494Z,6.04
2023-01-19T06:49:43.958Z,6.60
2023-01-19T06:52:11.632Z,9.37
2023-01-19T06:54:39.229Z,10.45
2023-01-19T06:57:06.854Z,9.24
2023-01-19T06:59:34.513Z,8.03
2023-01-19T07:02:27.715Z,7.19
2023-01-19T07:04:49.861Z,6.52
2023-01-19T07:07:17.552Z,6.09
2023-01-19T07:09:45.171Z,6.39
2023-01-19T07:12:12.802Z,8.97
2023-01-19T07:14:41.268Z,10.50
2023-01-19T07:17:09.011Z,9.47
2023-01-19T07:19:36.903Z,8.23
2023-01-19T07:22:04.570Z,7.31
2023-01-19T07:24:33.811Z,6.66
2023-01-19T07:27:01.427Z,6.12
2023-01-19T07:29:29.136Z,6.30
2023-01-19T07:31:57.051Z,9.03
2023-01-19T07:34:24.664Z,10.56
2023-01-19T07:36:52.297Z,9.43
2023-01-19T07:39:20.267Z,8.15
2023-01-19T07:41:47.930Z,7.25
2023-01-19T07:44:15.554Z,6.64
2023-01-19T07:46:43.567Z,6.16
2023-01-19T07:49:11.802Z,6.44
2023-01-19T07:51:39.506Z,9.30
2023-01-19T07:54:08.629Z,10.75
2023-01-19T07:56:36.236Z,9.52
2023-01-19T07:59:03.864Z,8.24
2023-01-19T08:01:31.760Z,7.36
2023-01-19T08:03:59.476Z,6.72
2023-01-19T08:06:27.102Z,6.20
2023-01-19T08:08:54.719Z,5.75
2023-01-19T08:11:22.341Z,6.12
2023-01-19T08:13:50.024Z,9.05
2023-01-19T08:16:17.681Z,10.72
2023-01-19T08:18:45.350Z,9.61
2023-01-19T08:21:13.026Z,8.28
2023-01-19T08:23:40.701Z,7.37
2023-01-19T08:26:08.378Z,6.73
2023-01-19T08:28:35.982Z,6.26
2023-01-19T08:31:18.689Z,6.48
2023-01-19T08:33:48.001Z,9.68
2023-01-19T08:36:15.677Z,10.74
2023-01-19T08:38:45.153Z,9.42
2023-01-19T08:41:14.276Z,8.10
2023-01-19T08:43:41.872Z,7.11
2023-01-19T08:46:09.582Z,6.40
2023-01-19T08:48:39.713Z,5.87
2023-01-19T08:51:07.603Z,5.44
2023-01-19T08:53:35.262Z,5.65
2023-01-19T08:56:03.622Z,8.43
2023-01-19T08:58:31.236Z,10.41
2023-01-19T09:00:58.887Z,9.38
2023-01-19T09:03:26.553Z,7.92
2023-01-19T09:05:54.228Z,6.79
2023-01-19T09:08:21.844Z,5.95
2023-01-19T09:10:49.486Z,5.35
2023-01-19T09:13:17.177Z,5.54
2023-01-19T09:15:44.917Z,8.30
2023-01-19T09:18:13.838Z,10.12
2023-01-19T09:20:42.810Z,9.15
2023-01-19T09:23:13.343Z,7.83
2023-01-19T09:25:41.118Z,6.91
2023-01-19T09:28:09.472Z,6.31
2023-01-19T09:30:37.694Z,6.66
2023-01-19T09:33:06.546Z,9.42
2023-01-19T09:35:34.219Z,10.77
2023-01-19T09:38:02.219Z,9.56
2023-01-19T09:40:30.131Z,8.14
2023-01-19T09:42:59.429Z,7.13
2023-01-19T09:45:27.102Z,6.41
2023-01-19T09:47:54.768Z,6.15
2023-01-19T09:50:22.394Z,8.29
2023-01-19T09:52:50.174Z,10.42
2023-01-19T09:55:17.773Z,9.56
2023-01-19T09:57:45.490Z,8.16
2023-01-19T10:00:13.120Z,7.14
2023-01-19T10:02:40.866Z,6.42
2023-01-19T10:05:08.742Z,5.94
2023-01-19T10:07:36.389Z,7.43
2023-01-19T10:10:04.010Z,9.94
2023-01-19T10:12:31.669Z,10.22
2023-01-19T10:14:59.482Z,8.64
2023-01-19T10:17:27.130Z,7.36
2023-01-19T10:19:54.798Z,6.42
2023-01-19T10:22:22.490Z,5.72
2023-01-19T10:24:50.128Z,6.51
2023-01-19T10:27:20.945Z,9.25
2023-01-19T10:29:48.602Z,10.27
2023-01-19T10:32:17.495Z,8.87
2023-01-19T10:34:45.102Z,7.48
2023-01-19T10:37:12.752Z,6.40
2023-01-19T10:39:40.356Z,6.20
2023-01-19T10:42:07.970Z,8.70
2023-01-19T10:44:35.591Z,10.39
2023-01-19T10:47:03.320Z,9.31
2023-01-19T10:49:31.706Z,7.78
2023-01-19T10:51:59.374Z,6.61
2023-01-19T10:54:26.955Z,5.87
2023-01-19T10:56:54.732Z,7.29
2023-01-19T10:59:22.376Z,9.75
2023-01-19T11:01:50.208Z,10.65
2023-01-19T11:04:17.972Z,9.31
2023-01-19T11:06:45.576Z,7.69
2023-01-19T11:09:13.283Z,6.60
2023-01-19T11:11:40.896Z,5.81
2023-01-19T11:14:08.616Z,6.33
2023-01-19T11:16:38.311Z,8.89
2023-01-19T11:19:05.925Z,10.26
2023-01-19T11:21:33.617Z,9.06
2023-01-19T11:24:01.259Z,7.61
2023-01-19T11:26:29.192Z,6.47
2023-01-19T11:28:56.854Z,5.96
2023-01-19T11:31:24.593Z,7.96
2023-01-19T11:33:52.419Z,9.55
2023-01-19T11:36:21.346Z,8.79
2023-01-19T11:38:50.608Z,7.43
2023-01-19T11:41:18.353Z,6.47
2023-01-19T11:43:49.371Z,5.78
2023-01-19T11:46:17.339Z,5.96
2023-01-19T11:48:44.956Z,8.64
2023-01-19T11:51:12.547Z,10.30
2023-01-19T11:53:40.207Z,9.19
2023-01-19T11:56:07.867Z,7.73
2023-01-19T11:58:35.482Z,6.69
2023-01-19T12:01:03.152Z,5.96
2023-01-19T12:03:30.945Z,5.43
2023-01-19T12:05:58.609Z,6.76
2023-01-19T12:08:27.133Z,9.66
2023-01-19T12:10:54.756Z,10.44
2023-01-19T12:13:22.437Z,9.03
2023-01-19T12:15:50.486Z,7.62
2023-01-19T12:18:18.308Z,6.65
2023-01-19T12:20:45.951Z,5.96
2023-01-19T12:23:13.642Z,6.97
2023-01-19T12:25:41.403Z,9.68
2023-01-19T12:28:09.055Z,10.92
2023-01-19T12:30:36.808Z,9.72
2023-01-19T12:33:04.556Z,8.20
2023-01-19T12:35:32.175Z,7.10
2023-01-19T12:37:59.781Z,6.33
2023-01-19T12:40:27.491Z,5.73
2023-01-19T12:42:55.183Z,5.65
2023-01-19T12:45:23.601Z,7.99
2023-01-19T12:47:53.065Z,10.20
2023-01-19T12:50:21.339Z,10.89
2023-01-19T12:52:51.754Z,9.40
2023-01-19T12:55:19.463Z,7.73
2023-01-19T12:57:47.070Z,6.54
2023-01-19T13:00:16.917Z,6.24
2023-01-19T13:02:44.734Z,8.70
2023-01-19T13:05:12.606Z,10.34
2023-01-19T13:07:40.220Z,9.27
2023-01-19T13:10:07.845Z,7.74
2023-01-19T13:12:35.487Z,6.61
2023-01-19T13:15:03.099Z,5.79
2023-01-19T13:17:30.714Z,6.49
2023-01-19T13:19:58.543Z,9.04
2023-01-19T13:22:26.219Z,9.88
2023-01-19T13:24:53.871Z,8.54
2023-01-19T13:27:21.480Z,7.07
2023-01-19T13:29:49.101Z,6.19
2023-01-19T13:32:17.761Z,8.09
2023-01-19T13:34:45.433Z,10.00
2023-01-19T13:37:13.076Z,9.00
2023-01-19T13:39:40.699Z,7.58
2023-01-19T13:42:08.801Z,6.52
2023-01-19T13:44:36.489Z,5.74
2023-01-19T13:47:04.119Z,5.85
2023-01-19T13:49:31.810Z,8.27
2023-01-19T13:51:59.421Z,9.65
2023-01-19T13:54:27.097Z,8.64
2023-01-19T13:56:55.294Z,7.23
2023-01-19T13:59:23.024Z,6.26
2023-01-19T14:01:51.688Z,5.55
2023-01-19T14:04:20.013Z,5.67
2023-01-19T14:06:49.712Z,8.42
2023-01-19T14:09:17.528Z,10.10
2023-01-19T14:11:45.224Z,8.89
2023-01-19T14:14:12.861Z,7.34
2023-01-19T14:16:40.483Z,6.29
2023-01-19T14:19:08.439Z,5.60
2023-01-19T14:21:36.114Z,5.66
2023-01-19T14:24:03.738Z,8.28
2023-01-19T14:26:31.380Z,10.47
2023-01-19T14:28:59.005Z,10.17
2023-01-19T14:31:28.223Z,8.46
2023-01-19T14:33:55.892Z,7.10
2023-01-19T14:36:23.532Z,6.19
2023-01-19T14:38:51.161Z,5.51
2023-01-19T14:41:18.778Z,5.72
2023-01-19T14:43:46.429Z,8.34
2023-01-19T14:46:14.072Z,10.22
2023-01-19T14:48:41.665Z,10.14
2023-01-19T14:51:09.332Z,8.49
2023-01-19T14:53:37.042Z,7.19
2023-01-19T14:56:04.777Z,6.20
2023-01-19T14:58:32.700Z,5.58
2023-01-19T15:01:00.412Z,7.23
2023-01-19T15:03:43.446Z,9.88
2023-01-19T15:06:12.941Z,9.47
2023-01-19T15:08:40.570Z,7.73
2023-01-19T15:11:08.191Z,6.59
2023-01-19T15:13:35.829Z,5.76
2023-01-19T15:16:04.015Z,5.20
2023-01-19T15:18:31.661Z,6.59
2023-01-19T15:21:03.090Z,9.24
2023-01-19T15:23:30.857Z,10.35
2023-01-19T15:25:58.556Z,8.92
2023-01-19T15:28:26.198Z,7.44
2023-01-19T15:30:57.917Z,6.30
2023-01-19T15:33:25.651Z,7.54
2023-01-19T15:35:53.338Z,10.04
2023-01-19T15:38:21.092Z,9.87
2023-01-19T15:40:51.448Z,8.31
2023-01-19T15:43:21.196Z,7.07
2023-01-19T15:45:48.878Z,6.22
2023-01-19T15:48:16.528Z,5.61
2023-01-19T15:50:44.162Z,5.69
2023-01-19T15:53:11.812Z,8.57
2023-01-19T15:55:39.468Z,10.39
2023-01-19T15:58:07.148Z,9.23
2023-01-19T16:00:34.942Z,7.79
2023-01-19T16:03:02.555Z,6.76
2023-01-19T16:05:41.908Z,6.02
2023-01-19T16:08:10.039Z,5.42
2023-01-19T16:10:37.628Z,5.94
2023-01-19T16:13:05.364Z,8.97
2023-01-19T16:15:33.011Z,10.38
2023-01-19T16:18:00.649Z,9.14
2023-01-19T16:20:28.282Z,7.73
2023-01-19T16:23:00.720Z,6.71
2023-01-19T16:25:33.936Z,5.92
2023-01-19T16:28:01.611Z,5.98
2023-01-19T16:30:29.304Z,8.73
2023-01-19T16:32:56.992Z,10.29
2023-01-19T16:35:24.605Z,9.02
2023-01-19T16:37:52.268Z,7.59
2023-01-19T16:40:20.544Z,6.59
2023-01-19T16:42:48.199Z,5.88
2023-01-19T16:45:15.921Z,6.03
2023-01-19T16:47:45.563Z,8.65
2023-01-19T16:50:13.461Z,10.35
2023-01-19T16:52:42.286Z,9.20
2023-01-19T16:55:14.701Z,7.70
2023-01-19T16:57:42.332Z,6.65
2023-01-19T17:00:10.688Z,5.87
2023-01-19T17:02:38.577Z,5.89
2023-01-19T17:05:06.275Z,8.67
2023-01-19T17:07:33.928Z,10.42
2023-01-19T17:10:01.700Z,9.22
2023-01-19T17:12:32.086Z,7.74
2023-01-19T17:14:59.989Z,6.68
2023-01-19T17:17:27.674Z,5.92
2023-01-19T17:19:55.316Z,5.31
2023-01-19T17:22:22.941Z,5.57
2023-01-19T17:24:50.591Z,8.39
2023-01-19T17:27:18.225Z,10.25
2023-01-19T17:29:45.846Z,9.30
2023-01-19T17:32:13.532Z,7.77
2023-01-19T17:34:41.186Z,6.67
2023-01-19T17:37:08.791Z,5.90
2023-01-19T17:39:36.432Z,5.95
2023-01-19T17:42:04.116Z,8.62
2023-01-19T17:44:31.730Z,10.33
2023-01-19T17:47:00.068Z,9.17
2023-01-19T17:49:27.858Z,7.68
2023-01-19T17:51:55.949Z,6.59
2023-01-19T17:54:23.685Z,5.81
2023-01-19T17:56:51.369Z,5.24
2023-01-19T17:59:19.018Z,5.55
2023-01-19T18:01:46.869Z,8.36
2023-01-19T18:04:14.562Z,10.09
2023-01-19T18:06:42.197Z,9.04
2023-01-19T18:09:09.797Z,7.52
2023-01-19T18:11:37.492Z,6.38
2023-01-19T18:14:06.135Z,5.60
2023-01-19T18:16:33.987Z,5.01
2023-01-19T18:19:01.614Z,5.36
2023-01-19T18:21:30.591Z,8.17
2023-01-19T18:23:58.373Z,10.07
2023-01-19T18:26:25.966Z,9.00
2023-01-19T18:28:53.565Z,7.51
2023-01-19T18:31:21.208Z,6.42
2023-01-19T18:33:48.874Z,5.97
2023-01-19T18:36:16.515Z,8.28
2023-01-19T18:38:44.140Z,10.37
2023-01-19T18:41:11.767Z,9.45
2023-01-19T18:43:39.431Z,7.82
2023-01-19T18:46:07.223Z,6.59
2023-01-19T18:48:35.059Z,5.74
2023-01-19T18:51:03.584Z,5.15
2023-01-19T18:53:31.222Z,6.32
2023-01-19T18:55:58.830Z,9.30
2023-01-19T18:58:29.580Z,10.12
2023-01-19T19:00:57.276Z,8.59
2023-01-19T19:03:24.935Z,7.18
2023-01-19T19:05:52.627Z,6.22
2023-01-19T19:08:20.295Z,5.51
2023-01-19T19:10:47.978Z,5.04
2023-01-19T19:13:15.609Z,6.66
2023-01-19T19:15:44.594Z,9.69
2023-01-19T19:18:14.243Z,9.93
2023-01-19T19:20:45.046Z,8.30
2023-01-19T19:23:12.760Z,7.04
2023-01-19T19:25:40.593Z,6.18
2023-01-19T19:28:08.697Z,5.53
2023-01-19T19:30:38.001Z,5.82
2023-01-19T19:33:05.763Z,8.73
2023-01-19T19:35:33.371Z,10.30
2023-01-19T19:38:00.990Z,9.09
2023-01-19T19:40:28.647Z,7.64
2023-01-19T19:42:58.697Z,6.63
2023-01-19T19:45:27.111Z,5.88
2023-01-19T19:47:54.796Z,5.33
2023-01-19T19:50:22.403Z,5.64
2023-01-19T19:52:50.037Z,8.70
2023-01-19T19:55:17.691Z,10.41
2023-01-19T19:57:45.740Z,9.14
2023-01-19T20:00:13.529Z,7.69
2023-01-19T20:02:41.358Z,6.68
2023-01-19T20:05:09.080Z,5.98
2023-01-19T20:07:37.188Z,6.05
2023-01-19T20:10:04.794Z,8.78
2023-01-19T20:12:32.443Z,10.44
2023-01-19T20:15:00.067Z,9.27
2023-01-19T20:17:27.706Z,7.87
2023-01-19T20:19:55.321Z,6.81
2023-01-19T20:22:23.012Z,6.03
2023-01-19T20:24:51.624Z,6.12
2023-01-19T20:27:19.297Z,8.82
2023-01-19T20:29:51.475Z,10.31
2023-01-19T20:32:19.462Z,9.02
2023-01-19T20:34:47.096Z,7.58
2023-01-19T20:37:14.696Z,6.56
2023-01-19T20:39:42.837Z,5.84
2023-01-19T20:42:11.722Z,5.89
2023-01-19T20:44:39.323Z,8.59
2023-01-19T20:47:07.083Z,10.26
2023-01-19T20:49:34.762Z,9.14
2023-01-19T20:52:02.413Z,7.76
2023-01-19T20:54:30.669Z,6.74
2023-01-19T20:56:58.369Z,6.03
2023-01-19T20:59:26.016Z,5.48
2023-01-19T21:01:53.772Z,5.70
2023-01-19T21:04:22.503Z,8.52
2023-01-19T21:06:50.132Z,10.35
2023-01-19T21:09:18.758Z,9.14
2023-01-19T21:11:46.408Z,7.59
2023-01-19T21:14:14.088Z,6.47
2023-01-19T21:16:42.772Z,5.67
2023-01-19T21:19:10.533Z,6.54
2023-01-19T21:21:38.155Z,9.55
2023-01-19T21:24:05.787Z,10.59
2023-01-19T21:26:33.742Z,9.13
2023-01-19T21:29:01.546Z,7.64
2023-01-19T21:31:29.255Z,6.60
2023-01-19T21:33:57.147Z,5.98
2023-01-19T21:36:24.884Z,8.01
2023-01-19T21:38:52.660Z,10.17
2023-01-19T21:41:20.471Z,9.21
2023-01-19T21:43:48.075Z,7.77
2023-01-19T21:46:15.777Z,6.70
2023-01-19T21:48:44.628Z,5.95
2023-01-19T21:51:12.255Z,6.16
2023-01-19T21:53:39.874Z,9.10
2023-01-19T21:56:07.821Z,10.42
2023-01-19T21:58:35.455Z,9.01
2023-01-19T22:01:03.179Z,7.58
2023-01-19T22:03:31.011Z,6.59
2023-01-19T22:05:58.650Z,5.87
2023-01-19T22:08:26.304Z,5.29
2023-01-19T22:10:54.996Z,5.52
2023-01-19T22:13:22.677Z,8.52
2023-01-19T22:15:50.295Z,10.27
2023-01-19T22:18:17.966Z,9.01
2023-01-19T22:20:45.578Z,7.44
2023-01-19T22:23:13.188Z,6.28
2023-01-19T22:25:40.864Z,5.66
2023-01-19T22:28:08.476Z,7.78
2023-01-19T22:30:36.218Z,10.04
2023-01-19T22:33:03.958Z,9.10
2023-01-19T22:35:31.607Z,7.45
2023-01-19T22:37:59.230Z,6.28
2023-01-19T22:40:26.896Z,5.47
2023-01-19T22:42:54.519Z,5.71
2023-01-19T22:45:22.171Z,8.62
2023-01-19T22:47:49.861Z,10.18
2023-01-19T22:50:17.469Z,8.92
2023-01-19T22:52:45.076Z,7.40
2023-01-19T22:55:13.167Z,6.28
2023-01-19T22:57:41.041Z,5.47
2023-01-19T23:00:09.177Z,5.65
2023-01-19T23:02:36.835Z,8.47
2023-01-19T23:05:04.440Z,10.04
2023-01-19T23:07:32.084Z,8.77
2023-01-19T23:09:59.718Z,7.23
2023-01-19T23:12:27.368Z,6.13
2023-01-19T23:14:54.991Z,5.36
2023-01-19T23:17:22.602Z,5.28
2023-01-19T23:19:50.207Z,7.91
2023-01-19T23:22:17.920Z,9.87
2023-01-19T23:24:45.581Z,8.84
2023-01-19T23:27:13.242Z,7.37
2023-01-19T23:29:40.887Z,6.33
2023-01-19T23:32:08.540Z,5.57
2023-01-19T23:34:36.176Z,5.59
2023-01-19T23:37:03.836Z,8.30
2023-01-19T23:39:31.467Z,10.00
2023-01-19T23:41:59.225Z,8.88
2023-01-19T23:44:26.826Z,7.32
2023-01-19T23:46:54.454Z,6.25
2023-01-19T23:49:22.171Z,5.53
2023-01-19T23:51:49.841Z,6.83
2023-01-19T23:54:17.528Z,9.60
2023-01-19T23:56:45.199Z,9.69
2023-01-19T23:59:12.889Z,8.13
